sensor_id;sensor_type;location;lat;lon;timestamp;temperature;humidity
14101;DHT22;7127;49.372;8.166;2024-01-07T00:01:29;9.70;56.30
14101;DHT22;7127;49.372;8.166;2024-01-07T00:03:55;9.70;56.90
14101;DHT22;7127;49.372;8.166;2024-01-07T00:06:22;9.80;56.40
14101;DHT22;7127;49.372;8.166;2024-01-07T00:08:49;9.70;56.30
14101;DHT22;7127;49.372;8.166;2024-01-07T00:11:16;9.70;56.30
14101;DHT22;7127;49.372;8.166;2024-01-07T00:13:42;9.70;56.30
14101;DHT22;7127;49.372;8.166;2024-01-07T00:16:09;9.70;56.30
14101;DHT22;7127;49.372;8.166;2024-01-07T00:18:37;9.70;56.30
14101;DHT22;7127;49.372;8.166;2024-01-07T00:21:04;9.70;56.30
14101;DHT22;7127;49.372;8.166;2024-01-07T00:23:31;9.60;56.30
14101;DHT22;7127;49.372;8.166;2024-01-07T00:25:58;9.70;56.40
14101;DHT22;7127;49.372;8.166;2024-01-07T00:28:25;9.60;56.30
14101;DHT22;7127;49.372;8.166;2024-01-07T00:30:51;9.60;56.30
14101;DHT22;7127;49.372;8.166;2024-01-07T00:33:18;9.60;56.30
14101;DHT22;7127;49.372;8.166;2024-01-07T00:35:46;9.60;56.30
14101;DHT22;7127;49.372;8.166;2024-01-07T00:38:13;9.60;56.30
14101;DHT22;7127;49.372;8.166;2024-01-07T00:40:40;9.60;56.30
14101;DHT22;7127;49.372;8.166;2024-01-07T00:43:07;9.60;56.30
14101;DHT22;7127;49.372;8.166;2024-01-07T00:45:33;9.60;56.30
14101;DHT22;7127;49.372;8.166;2024-01-07T00:48:00;9.60;56.30
14101;DHT22;7127;49.372;8.166;2024-01-07T00:50:27;9.60;56.30
14101;DHT22;7127;49.372;8.166;2024-01-07T00:52:55;9.60;56.40
14101;DHT22;7127;49.372;8.166;2024-01-07T00:55:22;9.60;56.30
14101;DHT22;7127;49.372;8.166;2024-01-07T00:57:49;9.60;56.30
14101;DHT22;7127;49.372;8.166;2024-01-07T01:00:17;9.60;56.40
14101;DHT22;7127;49.372;8.166;2024-01-07T01:02:44;9.60;56.30
14101;DHT22;7127;49.372;8.166;2024-01-07T01:05:10;9.60;56.30
14101;DHT22;7127;49.372;8.166;2024-01-07T01:07:37;9.60;56.30
14101;DHT22;7127;49.372;8.166;2024-01-07T01:10:07;9.50;56.20
14101;DHT22;7127;49.372;8.166;2024-01-07T01:12:34;9.50;56.20
14101;DHT22;7127;49.372;8.166;2024-01-07T01:15:01;9.40;56.20
14101;DHT22;7127;49.372;8.166;2024-01-07T01:17:27;9.50;56.30
14101;DHT22;7127;49.372;8.166;2024-01-07T01:19:54;9.40;56.40
14101;DHT22;7127;49.372;8.166;2024-01-07T01:22:21;9.40;56.40
14101;DHT22;7127;49.372;8.166;2024-01-07T01:24:47;9.40;56.50
14101;DHT22;7127;49.372;8.166;2024-01-07T01:27:18;9.40;56.50
14101;DHT22;7127;49.372;8.166;2024-01-07T01:29:44;9.40;56.60
14101;DHT22;7127;49.372;8.166;2024-01-07T01:32:11;9.40;56.60
14101;DHT22;7127;49.372;8.166;2024-01-07T01:34:39;9.30;56.60
14101;DHT22;7127;49.372;8.166;2024-01-07T01:37:08;9.30;56.70
14101;DHT22;7127;49.372;8.166;2024-01-07T01:39:35;9.30;56.70
14101;DHT22;7127;49.372;8.166;2024-01-07T01:42:01;9.30;56.80
14101;DHT22;7127;49.372;8.166;2024-01-07T01:44:30;9.30;56.80
14101;DHT22;7127;49.372;8.166;2024-01-07T01:46:57;9.30;56.70
14101;DHT22;7127;49.372;8.166;2024-01-07T01:49:26;9.20;56.70
14101;DHT22;7127;49.372;8.166;2024-01-07T01:51:53;9.20;56.80
14101;DHT22;7127;49.372;8.166;2024-01-07T01:54:20;9.20;56.80
14101;DHT22;7127;49.372;8.166;2024-01-07T01:56:48;9.10;56.70
14101;DHT22;7127;49.372;8.166;2024-01-07T01:59:15;9.20;57.40
14101;DHT22;7127;49.372;8.166;2024-01-07T02:01:43;9.10;56.80
14101;DHT22;7127;49.372;8.166;2024-01-07T02:04:11;9.10;56.80
14101;DHT22;7127;49.372;8.166;2024-01-07T02:06:37;9.10;56.80
14101;DHT22;7127;49.372;8.166;2024-01-07T02:09:04;9.10;56.80
14101;DHT22;7127;49.372;8.166;2024-01-07T02:11:31;9.00;56.70
14101;DHT22;7127;49.372;8.166;2024-01-07T02:13:58;9.00;56.90
14101;DHT22;7127;49.372;8.166;2024-01-07T02:16:25;9.00;56.90
14101;DHT22;7127;49.372;8.166;2024-01-07T02:18:53;9.00;57.20
14101;DHT22;7127;49.372;8.166;2024-01-07T02:21:19;9.00;57.10
14101;DHT22;7127;49.372;8.166;2024-01-07T02:23:46;9.00;57.10
14101;DHT22;7127;49.372;8.166;2024-01-07T02:26:14;8.90;57.10
14101;DHT22;7127;49.372;8.166;2024-01-07T02:28:41;9.00;57.30
14101;DHT22;7127;49.372;8.166;2024-01-07T02:31:08;8.90;57.40
14101;DHT22;7127;49.372;8.166;2024-01-07T02:33:35;8.90;57.30
14101;DHT22;7127;49.372;8.166;2024-01-07T02:36:01;10.30;57.50
14101;DHT22;7127;49.372;8.166;2024-01-07T02:38:28;8.90;57.40
14101;DHT22;7127;49.372;8.166;2024-01-07T02:40:55;8.90;57.40
14101;DHT22;7127;49.372;8.166;2024-01-07T02:43:23;8.90;57.50
14101;DHT22;7127;49.372;8.166;2024-01-07T02:45:50;8.90;57.40
14101;DHT22;7127;49.372;8.166;2024-01-07T02:48:17;8.90;57.40
14101;DHT22;7127;49.372;8.166;2024-01-07T02:50:44;8.90;57.40
14101;DHT22;7127;49.372;8.166;2024-01-07T02:53:11;8.80;57.40
14101;DHT22;7127;49.372;8.166;2024-01-07T02:55:37;8.80;57.70
14101;DHT22;7127;49.372;8.166;2024-01-07T02:58:04;8.80;57.60
14101;DHT22;7127;49.372;8.166;2024-01-07T03:00:32;8.90;57.80
14101;DHT22;7127;49.372;8.166;2024-01-07T03:02:59;8.70;57.60
14101;DHT22;7127;49.372;8.166;2024-01-07T03:05:26;8.80;57.80
14101;DHT22;7127;49.372;8.166;2024-01-07T03:07:54;8.80;57.80
14101;DHT22;7127;49.372;8.166;2024-01-07T03:10:21;8.80;57.90
14101;DHT22;7127;49.372;8.166;2024-01-07T03:12:48;8.70;57.70
14101;DHT22;7127;49.372;8.166;2024-01-07T03:15:15;8.70;57.80
14101;DHT22;7127;49.372;8.166;2024-01-07T03:17:43;8.80;57.90
14101;DHT22;7127;49.372;8.166;2024-01-07T03:20:11;8.80;57.90
14101;DHT22;7127;49.372;8.166;2024-01-07T03:22:37;8.80;57.80
14101;DHT22;7127;49.372;8.166;2024-01-07T03:25:05;8.80;57.90
14101;DHT22;7127;49.372;8.166;2024-01-07T03:27:32;8.80;57.90
14101;DHT22;7127;49.372;8.166;2024-01-07T03:29:59;8.80;57.80
14101;DHT22;7127;49.372;8.166;2024-01-07T03:32:26;8.80;57.80
14101;DHT22;7127;49.372;8.166;2024-01-07T03:34:54;8.90;57.90
14101;DHT22;7127;49.372;8.166;2024-01-07T03:37:21;8.90;57.90
14101;DHT22;7127;49.372;8.166;2024-01-07T03:39:48;8.80;57.70
14101;DHT22;7127;49.372;8.166;2024-01-07T03:42:15;8.80;57.70
14101;DHT22;7127;49.372;8.166;2024-01-07T03:44:41;8.80;57.80
14101;DHT22;7127;49.372;8.166;2024-01-07T03:47:08;8.80;57.80
14101;DHT22;7127;49.372;8.166;2024-01-07T03:49:36;8.70;57.90
14101;DHT22;7127;49.372;8.166;2024-01-07T03:52:05;8.70;57.80
14101;DHT22;7127;49.372;8.166;2024-01-07T03:54:32;8.70;57.90
14101;DHT22;7127;49.372;8.166;2024-01-07T03:56:59;8.70;57.90
14101;DHT22;7127;49.372;8.166;2024-01-07T03:59:26;8.70;58.00
14101;DHT22;7127;49.372;8.166;2024-01-07T04:01:55;8.70;58.00
14101;DHT22;7127;49.372;8.166;2024-01-07T04:04:22;8.60;57.90
14101;DHT22;7127;49.372;8.166;2024-01-07T04:06:49;8.70;58.10
14101;DHT22;7127;49.372;8.166;2024-01-07T04:09:17;8.70;58.00
14101;DHT22;7127;49.372;8.166;2024-01-07T04:11:44;8.70;57.90
14101;DHT22;7127;49.372;8.166;2024-01-07T04:14:13;8.70;57.90
14101;DHT22;7127;49.372;8.166;2024-01-07T04:16:40;8.70;57.90
14101;DHT22;7127;49.372;8.166;2024-01-07T04:19:07;8.70;57.80
14101;DHT22;7127;49.372;8.166;2024-01-07T04:21:33;8.60;57.90
14101;DHT22;7127;49.372;8.166;2024-01-07T04:24:01;8.70;57.90
14101;DHT22;7127;49.372;8.166;2024-01-07T04:26:29;8.70;57.90
14101;DHT22;7127;49.372;8.166;2024-01-07T04:28:56;8.70;57.80
14101;DHT22;7127;49.372;8.166;2024-01-07T04:31:22;8.70;57.90
14101;DHT22;7127;49.372;8.166;2024-01-07T04:33:49;8.70;57.70
14101;DHT22;7127;49.372;8.166;2024-01-07T04:36:16;8.80;57.80
14101;DHT22;7127;49.372;8.166;2024-01-07T04:38:43;8.80;57.80
14101;DHT22;7127;49.372;8.166;2024-01-07T04:41:09;8.80;57.80
14101;DHT22;7127;49.372;8.166;2024-01-07T04:43:38;8.70;57.70
14101;DHT22;7127;49.372;8.166;2024-01-07T04:46:06;8.70;57.70
14101;DHT22;7127;49.372;8.166;2024-01-07T04:48:32;8.70;57.70
14101;DHT22;7127;49.372;8.166;2024-01-07T04:50:59;8.70;57.70
14101;DHT22;7127;49.372;8.166;2024-01-07T04:53:26;8.70;57.80
14101;DHT22;7127;49.372;8.166;2024-01-07T04:55:53;8.70;57.80
14101;DHT22;7127;49.372;8.166;2024-01-07T04:58:20;8.60;57.90
14101;DHT22;7127;49.372;8.166;2024-01-07T05:00:48;8.60;58.00
14101;DHT22;7127;49.372;8.166;2024-01-07T05:03:15;8.60;58.10
14101;DHT22;7127;49.372;8.166;2024-01-07T05:05:42;8.50;58.10
14101;DHT22;7127;49.372;8.166;2024-01-07T05:08:08;8.50;58.10
14101;DHT22;7127;49.372;8.166;2024-01-07T05:10:35;8.50;58.10
14101;DHT22;7127;49.372;8.166;2024-01-07T05:13:02;8.50;58.20
14101;DHT22;7127;49.372;8.166;2024-01-07T05:15:31;8.50;58.30
14101;DHT22;7127;49.372;8.166;2024-01-07T05:17:59;8.50;58.30
14101;DHT22;7127;49.372;8.166;2024-01-07T05:20:27;8.50;58.30
14101;DHT22;7127;49.372;8.166;2024-01-07T05:22:53;8.40;58.30
14101;DHT22;7127;49.372;8.166;2024-01-07T05:25:20;8.40;58.20
14101;DHT22;7127;49.372;8.166;2024-01-07T05:27:47;8.50;58.30
14101;DHT22;7127;49.372;8.166;2024-01-07T05:30:14;8.50;58.40
14101;DHT22;7127;49.372;8.166;2024-01-07T05:32:40;8.60;58.40
14101;DHT22;7127;49.372;8.166;2024-01-07T05:35:09;8.50;58.40
14101;DHT22;7127;49.372;8.166;2024-01-07T05:37:35;8.50;58.30
14101;DHT22;7127;49.372;8.166;2024-01-07T05:40:02;8.50;58.20
14101;DHT22;7127;49.372;8.166;2024-01-07T05:42:31;8.50;58.20
14101;DHT22;7127;49.372;8.166;2024-01-07T05:44:58;8.50;58.10
14101;DHT22;7127;49.372;8.166;2024-01-07T05:47:25;8.50;58.10
14101;DHT22;7127;49.372;8.166;2024-01-07T05:49:51;8.50;58.10
14101;DHT22;7127;49.372;8.166;2024-01-07T05:52:19;8.50;58.10
14101;DHT22;7127;49.372;8.166;2024-01-07T05:54:46;8.50;58.20
14101;DHT22;7127;49.372;8.166;2024-01-07T05:57:13;8.40;58.10
14101;DHT22;7127;49.372;8.166;2024-01-07T05:59:40;8.40;58.20
14101;DHT22;7127;49.372;8.166;2024-01-07T06:02:06;8.40;58.30
14101;DHT22;7127;49.372;8.166;2024-01-07T06:04:33;8.30;58.30
14101;DHT22;7127;49.372;8.166;2024-01-07T06:07:00;8.30;58.50
14101;DHT22;7127;49.372;8.166;2024-01-07T06:09:28;8.20;58.40
14101;DHT22;7127;49.372;8.166;2024-01-07T06:11:55;8.20;58.60
14101;DHT22;7127;49.372;8.166;2024-01-07T06:14:22;8.20;58.70
14101;DHT22;7127;49.372;8.166;2024-01-07T06:16:50;8.20;58.70
14101;DHT22;7127;49.372;8.166;2024-01-07T06:19:17;8.30;59.00
14101;DHT22;7127;49.372;8.166;2024-01-07T06:21:44;8.20;58.80
14101;DHT22;7127;49.372;8.166;2024-01-07T06:24:11;8.30;59.00
14101;DHT22;7127;49.372;8.166;2024-01-07T06:26:39;8.20;59.60
14101;DHT22;7127;49.372;8.166;2024-01-07T06:31:35;8.20;58.90
14101;DHT22;7127;49.372;8.166;2024-01-07T06:34:01;8.20;59.10
14101;DHT22;7127;49.372;8.166;2024-01-07T06:36:28;8.20;59.30
14101;DHT22;7127;49.372;8.166;2024-01-07T06:38:55;8.20;59.40
14101;DHT22;7127;49.372;8.166;2024-01-07T06:41:22;8.10;59.20
14101;DHT22;7127;49.372;8.166;2024-01-07T06:43:50;8.10;59.20
14101;DHT22;7127;49.372;8.166;2024-01-07T06:46:19;8.10;59.40
14101;DHT22;7127;49.372;8.166;2024-01-07T06:48:46;8.10;59.50
14101;DHT22;7127;49.372;8.166;2024-01-07T06:51:14;8.10;59.50
14101;DHT22;7127;49.372;8.166;2024-01-07T06:53:40;8.10;59.50
14101;DHT22;7127;49.372;8.166;2024-01-07T06:56:07;8.10;59.50
14101;DHT22;7127;49.372;8.166;2024-01-07T06:58:34;8.10;59.70
14101;DHT22;7127;49.372;8.166;2024-01-07T07:01:02;8.10;59.60
14101;DHT22;7127;49.372;8.166;2024-01-07T07:03:29;8.10;59.60
14101;DHT22;7127;49.372;8.166;2024-01-07T07:05:55;8.00;59.60
14101;DHT22;7127;49.372;8.166;2024-01-07T07:08:22;8.00;59.60
14101;DHT22;7127;49.372;8.166;2024-01-07T07:10:49;8.00;59.80
14101;DHT22;7127;49.372;8.166;2024-01-07T07:13:16;8.00;59.80
14101;DHT22;7127;49.372;8.166;2024-01-07T07:15:42;8.00;59.80
14101;DHT22;7127;49.372;8.166;2024-01-07T07:18:10;8.00;59.70
14101;DHT22;7127;49.372;8.166;2024-01-07T07:20:37;8.00;59.60
14101;DHT22;7127;49.372;8.166;2024-01-07T07:23:04;8.00;59.70
14101;DHT22;7127;49.372;8.166;2024-01-07T07:25:31;8.00;59.80
14101;DHT22;7127;49.372;8.166;2024-01-07T07:27:57;8.00;59.70
14101;DHT22;7127;49.372;8.166;2024-01-07T07:30:24;8.00;59.80
14101;DHT22;7127;49.372;8.166;2024-01-07T07:32:51;8.00;59.80
14101;DHT22;7127;49.372;8.166;2024-01-07T07:35:20;8.00;59.70
14101;DHT22;7127;49.372;8.166;2024-01-07T07:37:46;8.00;59.60
14101;DHT22;7127;49.372;8.166;2024-01-07T07:40:13;8.00;59.80
14101;DHT22;7127;49.372;8.166;2024-01-07T07:42:40;8.00;59.90
14101;DHT22;7127;49.372;8.166;2024-01-07T07:45:08;8.00;59.80
14101;DHT22;7127;49.372;8.166;2024-01-07T07:47:35;7.90;59.80
14101;DHT22;7127;49.372;8.166;2024-01-07T07:50:02;8.00;60.00
14101;DHT22;7127;49.372;8.166;2024-01-07T07:52:30;8.00;59.90
14101;DHT22;7127;49.372;8.166;2024-01-07T07:54:57;8.00;59.90
14101;DHT22;7127;49.372;8.166;2024-01-07T07:57:24;8.00;60.00
14101;DHT22;7127;49.372;8.166;2024-01-07T07:59:50;8.00;59.90
14101;DHT22;7127;49.372;8.166;2024-01-07T08:02:18;8.00;59.90
14101;DHT22;7127;49.372;8.166;2024-01-07T08:04:46;7.90;60.10
14101;DHT22;7127;49.372;8.166;2024-01-07T08:07:13;7.90;59.90
14101;DHT22;7127;49.372;8.166;2024-01-07T08:09:41;8.00;60.00
14101;DHT22;7127;49.372;8.166;2024-01-07T08:12:08;8.00;59.90
14101;DHT22;7127;49.372;8.166;2024-01-07T08:14:37;8.00;60.00
14101;DHT22;7127;49.372;8.166;2024-01-07T08:17:06;7.90;60.00
14101;DHT22;7127;49.372;8.166;2024-01-07T08:19:33;7.90;60.30
14101;DHT22;7127;49.372;8.166;2024-01-07T08:22:00;7.90;60.10
14101;DHT22;7127;49.372;8.166;2024-01-07T08:24:26;7.80;60.30
14101;DHT22;7127;49.372;8.166;2024-01-07T08:26:55;7.80;60.50
14101;DHT22;7127;49.372;8.166;2024-01-07T08:29:22;7.80;60.30
14101;DHT22;7127;49.372;8.166;2024-01-07T08:31:49;7.80;60.70
14101;DHT22;7127;49.372;8.166;2024-01-07T08:34:16;7.80;60.80
14101;DHT22;7127;49.372;8.166;2024-01-07T08:36:42;7.80;61.00
14101;DHT22;7127;49.372;8.166;2024-01-07T08:39:09;7.80;60.40
14101;DHT22;7127;49.372;8.166;2024-01-07T08:41:36;7.80;60.80
14101;DHT22;7127;49.372;8.166;2024-01-07T08:44:04;7.90;61.20
14101;DHT22;7127;49.372;8.166;2024-01-07T08:46:31;7.80;61.00
14101;DHT22;7127;49.372;8.166;2024-01-07T08:48:58;7.80;61.20
14101;DHT22;7127;49.372;8.166;2024-01-07T08:51:25;7.80;61.20
14101;DHT22;7127;49.372;8.166;2024-01-07T08:53:52;7.70;61.30
14101;DHT22;7127;49.372;8.166;2024-01-07T08:56:18;7.70;61.20
14101;DHT22;7127;49.372;8.166;2024-01-07T08:58:45;7.60;61.00
14101;DHT22;7127;49.372;8.166;2024-01-07T09:01:13;7.60;61.20
14101;DHT22;7127;49.372;8.166;2024-01-07T09:03:40;7.60;61.00
14101;DHT22;7127;49.372;8.166;2024-01-07T09:06:07;7.50;61.00
14101;DHT22;7127;49.372;8.166;2024-01-07T09:08:34;7.50;61.00
14101;DHT22;7127;49.372;8.166;2024-01-07T09:11:03;7.50;61.30
14101;DHT22;7127;49.372;8.166;2024-01-07T09:13:31;7.50;61.20
14101;DHT22;7127;49.372;8.166;2024-01-07T09:15:58;7.50;61.10
14101;DHT22;7127;49.372;8.166;2024-01-07T09:18:26;7.50;61.30
14101;DHT22;7127;49.372;8.166;2024-01-07T09:20:53;7.40;61.30
14101;DHT22;7127;49.372;8.166;2024-01-07T09:23:20;7.40;61.30
14101;DHT22;7127;49.372;8.166;2024-01-07T09:25:47;7.40;61.20
14101;DHT22;7127;49.372;8.166;2024-01-07T09:28:23;7.40;61.30
14101;DHT22;7127;49.372;8.166;2024-01-07T09:30:50;7.40;61.30
14101;DHT22;7127;49.372;8.166;2024-01-07T09:33:17;7.30;61.20
14101;DHT22;7127;49.372;8.166;2024-01-07T09:35:46;7.30;61.20
14101;DHT22;7127;49.372;8.166;2024-01-07T09:38:13;7.30;60.90
14101;DHT22;7127;49.372;8.166;2024-01-07T09:40:40;7.30;60.70
14101;DHT22;7127;49.372;8.166;2024-01-07T09:43:07;7.30;60.80
14101;DHT22;7127;49.372;8.166;2024-01-07T09:45:36;7.30;61.00
14101;DHT22;7127;49.372;8.166;2024-01-07T09:48:05;7.40;61.00
14101;DHT22;7127;49.372;8.166;2024-01-07T09:50:32;7.40;60.80
14101;DHT22;7127;49.372;8.166;2024-01-07T09:53:02;7.40;60.50
14101;DHT22;7127;49.372;8.166;2024-01-07T09:55:33;7.30;59.90
14101;DHT22;7127;49.372;8.166;2024-01-07T09:57:59;7.30;59.80
14101;DHT22;7127;49.372;8.166;2024-01-07T10:00:27;7.30;59.80
14101;DHT22;7127;49.372;8.166;2024-01-07T10:02:54;7.30;59.70
14101;DHT22;7127;49.372;8.166;2024-01-07T10:05:21;7.30;59.90
14101;DHT22;7127;49.372;8.166;2024-01-07T10:07:47;7.30;59.40
14101;DHT22;7127;49.372;8.166;2024-01-07T10:10:16;7.30;59.40
14101;DHT22;7127;49.372;8.166;2024-01-07T10:12:44;7.20;59.30
14101;DHT22;7127;49.372;8.166;2024-01-07T10:15:11;7.20;59.40
14101;DHT22;7127;49.372;8.166;2024-01-07T10:17:39;7.20;59.60
14101;DHT22;7127;49.372;8.166;2024-01-07T10:20:08;7.20;59.70
14101;DHT22;7127;49.372;8.166;2024-01-07T10:22:35;7.20;59.80
14101;DHT22;7127;49.372;8.166;2024-01-07T10:25:03;7.20;59.40
14101;DHT22;7127;49.372;8.166;2024-01-07T10:27:33;7.20;58.30
14101;DHT22;7127;49.372;8.166;2024-01-07T10:30:01;7.20;58.10
14101;DHT22;7127;49.372;8.166;2024-01-07T10:32:28;7.10;58.50
14101;DHT22;7127;49.372;8.166;2024-01-07T10:35:01;7.10;58.30
14101;DHT22;7127;49.372;8.166;2024-01-07T10:37:28;7.10;57.80
14101;DHT22;7127;49.372;8.166;2024-01-07T10:39:58;7.10;57.40
14101;DHT22;7127;49.372;8.166;2024-01-07T10:42:31;7.00;57.70
14101;DHT22;7127;49.372;8.166;2024-01-07T10:44:58;7.00;57.70
14101;DHT22;7127;49.372;8.166;2024-01-07T10:47:29;7.00;57.60
14101;DHT22;7127;49.372;8.166;2024-01-07T10:49:57;7.00;57.00
14101;DHT22;7127;49.372;8.166;2024-01-07T10:52:27;6.90;56.70
14101;DHT22;7127;49.372;8.166;2024-01-07T10:54:56;6.90;56.70
14101;DHT22;7127;49.372;8.166;2024-01-07T10:57:27;6.80;56.80
14101;DHT22;7127;49.372;8.166;2024-01-07T11:00:00;6.90;57.10
14101;DHT22;7127;49.372;8.166;2024-01-07T11:02:29;6.90;57.40
14101;DHT22;7127;49.372;8.166;2024-01-07T11:05:05;6.90;57.50
14101;DHT22;7127;49.372;8.166;2024-01-07T11:07:39;7.00;58.00
14101;DHT22;7127;49.372;8.166;2024-01-07T11:10:11;6.90;56.60
14101;DHT22;7127;49.372;8.166;2024-01-07T11:12:40;6.90;56.40
14101;DHT22;7127;49.372;8.166;2024-01-07T11:15:08;6.90;56.40
14101;DHT22;7127;49.372;8.166;2024-01-07T11:17:42;6.90;56.80
14101;DHT22;7127;49.372;8.166;2024-01-07T11:20:14;6.90;56.70
14101;DHT22;7127;49.372;8.166;2024-01-07T11:22:44;6.90;56.40
14101;DHT22;7127;49.372;8.166;2024-01-07T11:25:28;6.80;56.20
14101;DHT22;7127;49.372;8.166;2024-01-07T11:27:56;6.80;56.30
14101;DHT22;7127;49.372;8.166;2024-01-07T11:30:24;6.80;56.40
14101;DHT22;7127;49.372;8.166;2024-01-07T11:32:57;6.80;57.10
14101;DHT22;7127;49.372;8.166;2024-01-07T11:35:54;6.80;56.50
14101;DHT22;7127;49.372;8.166;2024-01-07T11:38:22;6.80;56.20
14101;DHT22;7127;49.372;8.166;2024-01-07T11:40:49;6.70;56.30
14101;DHT22;7127;49.372;8.166;2024-01-07T11:43:16;6.70;55.90
14101;DHT22;7127;49.372;8.166;2024-01-07T11:45:45;6.70;56.00
14101;DHT22;7127;49.372;8.166;2024-01-07T11:48:13;6.70;56.20
14101;DHT22;7127;49.372;8.166;2024-01-07T11:50:39;6.70;56.10
14101;DHT22;7127;49.372;8.166;2024-01-07T11:53:07;6.70;55.90
14101;DHT22;7127;49.372;8.166;2024-01-07T11:55:33;6.60;55.80
14101;DHT22;7127;49.372;8.166;2024-01-07T11:58:02;6.60;55.90
14101;DHT22;7127;49.372;8.166;2024-01-07T12:00:31;6.60;56.20
14101;DHT22;7127;49.372;8.166;2024-01-07T12:03:00;6.70;56.50
14101;DHT22;7127;49.372;8.166;2024-01-07T12:05:27;6.70;56.50
14101;DHT22;7127;49.372;8.166;2024-01-07T12:07:54;6.80;56.60
14101;DHT22;7127;49.372;8.166;2024-01-07T12:10:21;6.80;56.50
14101;DHT22;7127;49.372;8.166;2024-01-07T12:12:48;6.80;56.30
14101;DHT22;7127;49.372;8.166;2024-01-07T12:15:16;7.00;55.90
14101;DHT22;7127;49.372;8.166;2024-01-07T12:17:54;6.80;55.80
14101;DHT22;7127;49.372;8.166;2024-01-07T12:20:23;6.90;55.70
14101;DHT22;7127;49.372;8.166;2024-01-07T12:22:49;6.90;56.20
14101;DHT22;7127;49.372;8.166;2024-01-07T12:25:21;6.90;55.90
14101;DHT22;7127;49.372;8.166;2024-01-07T12:27:49;7.00;55.40
14101;DHT22;7127;49.372;8.166;2024-01-07T12:30:18;6.90;55.80
14101;DHT22;7127;49.372;8.166;2024-01-07T12:32:45;7.00;55.80
14101;DHT22;7127;49.372;8.166;2024-01-07T12:35:12;7.00;55.30
14101;DHT22;7127;49.372;8.166;2024-01-07T12:37:42;7.00;54.80
14101;DHT22;7127;49.372;8.166;2024-01-07T12:40:10;7.00;55.10
14101;DHT22;7127;49.372;8.166;2024-01-07T12:42:37;7.00;55.40
14101;DHT22;7127;49.372;8.166;2024-01-07T12:45:06;7.00;55.70
14101;DHT22;7127;49.372;8.166;2024-01-07T12:47:34;7.10;55.80
14101;DHT22;7127;49.372;8.166;2024-01-07T12:50:01;7.10;55.50
14101;DHT22;7127;49.372;8.166;2024-01-07T12:52:28;7.10;55.20
14101;DHT22;7127;49.372;8.166;2024-01-07T12:54:56;7.10;55.90
14101;DHT22;7127;49.372;8.166;2024-01-07T12:57:23;7.10;55.10
14101;DHT22;7127;49.372;8.166;2024-01-07T12:59:50;7.10;55.20
14101;DHT22;7127;49.372;8.166;2024-01-07T13:02:17;7.10;55.20
14101;DHT22;7127;49.372;8.166;2024-01-07T13:04:44;7.00;55.10
14101;DHT22;7127;49.372;8.166;2024-01-07T13:07:10;7.00;55.30
14101;DHT22;7127;49.372;8.166;2024-01-07T13:09:37;6.90;55.40
14101;DHT22;7127;49.372;8.166;2024-01-07T13:12:06;6.90;55.70
14101;DHT22;7127;49.372;8.166;2024-01-07T13:14:32;6.90;55.70
14101;DHT22;7127;49.372;8.166;2024-01-07T13:16:59;6.90;55.40
14101;DHT22;7127;49.372;8.166;2024-01-07T13:19:26;6.80;55.50
14101;DHT22;7127;49.372;8.166;2024-01-07T13:21:53;6.80;55.70
14101;DHT22;7127;49.372;8.166;2024-01-07T13:24:23;6.80;55.70
14101;DHT22;7127;49.372;8.166;2024-01-07T13:26:50;6.80;55.80
14101;DHT22;7127;49.372;8.166;2024-01-07T13:29:18;6.80;56.00
14101;DHT22;7127;49.372;8.166;2024-01-07T13:31:45;6.90;55.80
14101;DHT22;7127;49.372;8.166;2024-01-07T13:34:11;6.80;55.50
14101;DHT22;7127;49.372;8.166;2024-01-07T13:36:40;6.80;55.60
14101;DHT22;7127;49.372;8.166;2024-01-07T13:39:07;6.80;55.60
14101;DHT22;7127;49.372;8.166;2024-01-07T13:41:34;6.90;55.70
14101;DHT22;7127;49.372;8.166;2024-01-07T13:44:01;6.90;54.90
14101;DHT22;7127;49.372;8.166;2024-01-07T13:46:30;6.80;54.30
14101;DHT22;7127;49.372;8.166;2024-01-07T13:48:56;6.80;54.60
14101;DHT22;7127;49.372;8.166;2024-01-07T13:51:23;6.80;54.10
14101;DHT22;7127;49.372;8.166;2024-01-07T13:53:50;6.80;53.90
14101;DHT22;7127;49.372;8.166;2024-01-07T13:56:17;6.80;54.10
14101;DHT22;7127;49.372;8.166;2024-01-07T13:58:44;6.80;54.30
14101;DHT22;7127;49.372;8.166;2024-01-07T14:01:12;6.70;54.10
14101;DHT22;7127;49.372;8.166;2024-01-07T14:03:40;6.80;53.90
14101;DHT22;7127;49.372;8.166;2024-01-07T14:06:07;6.80;53.00
14101;DHT22;7127;49.372;8.166;2024-01-07T14:08:34;6.80;53.50
14101;DHT22;7127;49.372;8.166;2024-01-07T14:11:01;6.70;53.10
14101;DHT22;7127;49.372;8.166;2024-01-07T14:13:28;6.60;53.00
14101;DHT22;7127;49.372;8.166;2024-01-07T14:15:55;6.60;53.20
14101;DHT22;7127;49.372;8.166;2024-01-07T14:18:22;6.60;53.10
14101;DHT22;7127;49.372;8.166;2024-01-07T14:20:50;6.50;53.00
14101;DHT22;7127;49.372;8.166;2024-01-07T14:23:17;6.50;53.20
14101;DHT22;7127;49.372;8.166;2024-01-07T14:25:43;6.50;53.40
14101;DHT22;7127;49.372;8.166;2024-01-07T14:28:10;6.50;53.20
14101;DHT22;7127;49.372;8.166;2024-01-07T14:30:37;6.50;53.50
14101;DHT22;7127;49.372;8.166;2024-01-07T14:33:04;6.50;52.90
14101;DHT22;7127;49.372;8.166;2024-01-07T14:35:31;6.60;53.50
14101;DHT22;7127;49.372;8.166;2024-01-07T14:38:00;6.60;53.50
14101;DHT22;7127;49.372;8.166;2024-01-07T14:40:27;6.60;53.30
14101;DHT22;7127;49.372;8.166;2024-01-07T14:42:53;6.60;53.40
14101;DHT22;7127;49.372;8.166;2024-01-07T14:45:23;6.60;53.10
14101;DHT22;7127;49.372;8.166;2024-01-07T14:47:50;6.50;52.30
14101;DHT22;7127;49.372;8.166;2024-01-07T14:50:18;6.50;52.90
14101;DHT22;7127;49.372;8.166;2024-01-07T14:52:45;6.50;52.90
14101;DHT22;7127;49.372;8.166;2024-01-07T14:55:13;6.50;53.20
14101;DHT22;7127;49.372;8.166;2024-01-07T14:57:40;6.50;52.40
14101;DHT22;7127;49.372;8.166;2024-01-07T15:00:08;6.40;52.90
14101;DHT22;7127;49.372;8.166;2024-01-07T15:02:34;6.40;53.10
14101;DHT22;7127;49.372;8.166;2024-01-07T15:05:01;6.40;53.10
14101;DHT22;7127;49.372;8.166;2024-01-07T15:07:28;6.50;53.10
14101;DHT22;7127;49.372;8.166;2024-01-07T15:09:55;6.40;53.10
14101;DHT22;7127;49.372;8.166;2024-01-07T15:12:23;6.50;53.10
14101;DHT22;7127;49.372;8.166;2024-01-07T15:14:50;6.50;53.10
14101;DHT22;7127;49.372;8.166;2024-01-07T15:17:17;6.50;53.10
14101;DHT22;7127;49.372;8.166;2024-01-07T15:19:44;6.50;52.70
14101;DHT22;7127;49.372;8.166;2024-01-07T15:22:11;6.50;53.00
14101;DHT22;7127;49.372;8.166;2024-01-07T15:24:38;6.50;52.80
14101;DHT22;7127;49.372;8.166;2024-01-07T15:27:05;6.50;52.80
14101;DHT22;7127;49.372;8.166;2024-01-07T15:29:33;6.50;52.80
14101;DHT22;7127;49.372;8.166;2024-01-07T15:32:00;6.40;52.30
14101;DHT22;7127;49.372;8.166;2024-01-07T15:34:26;6.40;51.90
14101;DHT22;7127;49.372;8.166;2024-01-07T15:36:53;6.40;52.30
14101;DHT22;7127;49.372;8.166;2024-01-07T15:39:20;6.30;52.00
14101;DHT22;7127;49.372;8.166;2024-01-07T15:41:47;6.20;50.90
14101;DHT22;7127;49.372;8.166;2024-01-07T15:44:13;6.20;51.30
14101;DHT22;7127;49.372;8.166;2024-01-07T15:46:41;6.10;51.10
14101;DHT22;7127;49.372;8.166;2024-01-07T15:49:08;6.10;51.50
14101;DHT22;7127;49.372;8.166;2024-01-07T15:51:35;6.00;51.80
14101;DHT22;7127;49.372;8.166;2024-01-07T15:54:02;6.10;52.00
14101;DHT22;7127;49.372;8.166;2024-01-07T15:56:29;6.00;52.00
14101;DHT22;7127;49.372;8.166;2024-01-07T15:58:55;6.00;51.20
14101;DHT22;7127;49.372;8.166;2024-01-07T16:01:22;6.00;51.80
14101;DHT22;7127;49.372;8.166;2024-01-07T16:03:50;6.00;51.90
14101;DHT22;7127;49.372;8.166;2024-01-07T16:06:17;6.00;51.60